sensor_id;sensor_type;location;lat;lon;timestamp;temperature;humidity
24085;DHT22;12268;52.110;5.548;2024-02-23T00:01:44;5.90;99.90
24085;DHT22;12268;52.110;5.548;2024-02-23T00:04:10;6.10;99.90
24085;DHT22;12268;52.110;5.548;2024-02-23T00:06:35;6.30;99.90
24085;DHT22;12268;52.110;5.548;2024-02-23T00:09:01;6.20;99.90
24085;DHT22;12268;52.110;5.548;2024-02-23T00:11:27;6.20;99.90
24085;DHT22;12268;52.110;5.548;2024-02-23T00:13:54;6.30;99.90
24085;DHT22;12268;52.110;5.548;2024-02-23T00:16:19;6.30;99.90
24085;DHT22;12268;52.110;5.548;2024-02-23T00:18:45;6.30;99.90
24085;DHT22;12268;52.110;5.548;2024-02-23T00:21:11;6.40;99.90
24085;DHT22;12268;52.110;5.548;2024-02-23T00:23:36;6.50;99.90
24085;DHT22;12268;52.110;5.548;2024-02-23T00:26:02;6.50;99.90
24085;DHT22;12268;52.110;5.548;2024-02-23T00:28:28;6.60;99.90
24085;DHT22;12268;52.110;5.548;2024-02-23T00:30:53;6.70;99.90
24085;DHT22;12268;52.110;5.548;2024-02-23T00:33:19;6.80;99.90
24085;DHT22;12268;52.110;5.548;2024-02-23T00:35:45;6.80;99.90
24085;DHT22;12268;52.110;5.548;2024-02-23T00:38:10;6.90;99.90
24085;DHT22;12268;52.110;5.548;2024-02-23T00:40:36;6.90;99.90
24085;DHT22;12268;52.110;5.548;2024-02-23T00:43:02;7.00;99.90
24085;DHT22;12268;52.110;5.548;2024-02-23T00:45:28;7.20;99.90
24085;DHT22;12268;52.110;5.548;2024-02-23T00:47:54;7.10;99.90
24085;DHT22;12268;52.110;5.548;2024-02-23T00:50:19;7.30;99.90
24085;DHT22;12268;52.110;5.548;2024-02-23T00:52:45;7.30;99.90
24085;DHT22;12268;52.110;5.548;2024-02-23T00:55:11;7.20;99.90
24085;DHT22;12268;52.110;5.548;2024-02-23T00:57:37;6.90;99.90
24085;DHT22;12268;52.110;5.548;2024-02-23T01:00:04;6.80;99.90
24085;DHT22;12268;52.110;5.548;2024-02-23T01:02:31;6.50;99.90
24085;DHT22;12268;52.110;5.548;2024-02-23T01:04:58;6.20;99.90
24085;DHT22;12268;52.110;5.548;2024-02-23T01:07:24;6.10;99.90
24085;DHT22;12268;52.110;5.548;2024-02-23T01:09:50;6.10;99.90
24085;DHT22;12268;52.110;5.548;2024-02-23T01:12:16;6.10;99.90
24085;DHT22;12268;52.110;5.548;2024-02-23T01:14:41;6.20;99.90
24085;DHT22;12268;52.110;5.548;2024-02-23T01:17:07;6.20;99.90
24085;DHT22;12268;52.110;5.548;2024-02-23T01:19:32;6.00;99.90
24085;DHT22;12268;52.110;5.548;2024-02-23T01:21:58;6.00;99.90
24085;DHT22;12268;52.110;5.548;2024-02-23T01:24:27;5.80;99.90
24085;DHT22;12268;52.110;5.548;2024-02-23T01:26:55;5.60;99.90
24085;DHT22;12268;52.110;5.548;2024-02-23T01:29:24;5.40;99.90
24085;DHT22;12268;52.110;5.548;2024-02-23T01:31:50;5.20;99.90
24085;DHT22;12268;52.110;5.548;2024-02-23T01:34:17;4.90;99.90
24085;DHT22;12268;52.110;5.548;2024-02-23T01:36:43;4.70;99.90
24085;DHT22;12268;52.110;5.548;2024-02-23T01:39:09;4.60;99.90
24085;DHT22;12268;52.110;5.548;2024-02-23T01:41:35;4.50;99.90
24085;DHT22;12268;52.110;5.548;2024-02-23T01:44:01;4.70;99.90
24085;DHT22;12268;52.110;5.548;2024-02-23T01:46:26;5.00;99.90
24085;DHT22;12268;52.110;5.548;2024-02-23T01:48:52;5.30;99.90
24085;DHT22;12268;52.110;5.548;2024-02-23T01:51:19;5.60;99.90
24085;DHT22;12268;52.110;5.548;2024-02-23T01:53:48;6.00;99.90
24085;DHT22;12268;52.110;5.548;2024-02-23T01:56:14;6.20;99.90
24085;DHT22;12268;52.110;5.548;2024-02-23T01:58:44;6.20;99.90
24085;DHT22;12268;52.110;5.548;2024-02-23T02:01:10;6.10;99.90
24085;DHT22;12268;52.110;5.548;2024-02-23T02:03:38;5.80;99.90
24085;DHT22;12268;52.110;5.548;2024-02-23T02:06:07;6.00;99.90
24085;DHT22;12268;52.110;5.548;2024-02-23T02:08:34;6.10;99.90
24085;DHT22;12268;52.110;5.548;2024-02-23T02:11:00;6.20;99.90
24085;DHT22;12268;52.110;5.548;2024-02-23T02:13:28;6.20;99.90
24085;DHT22;12268;52.110;5.548;2024-02-23T02:15:53;6.20;99.90
24085;DHT22;12268;52.110;5.548;2024-02-23T02:18:19;6.10;99.90
24085;DHT22;12268;52.110;5.548;2024-02-23T02:20:51;6.10;99.90
24085;DHT22;12268;52.110;5.548;2024-02-23T02:23:20;6.20;99.90
24085;DHT22;12268;52.110;5.548;2024-02-23T02:25:55;6.10;99.90
24085;DHT22;12268;52.110;5.548;2024-02-23T02:28:21;6.10;99.90
24085;DHT22;12268;52.110;5.548;2024-02-23T02:30:48;6.20;99.90
24085;DHT22;12268;52.110;5.548;2024-02-23T02:33:13;6.20;99.90
24085;DHT22;12268;52.110;5.548;2024-02-23T02:35:39;6.20;99.90
24085;DHT22;12268;52.110;5.548;2024-02-23T02:38:05;6.20;99.90
24085;DHT22;12268;52.110;5.548;2024-02-23T02:40:30;6.20;99.90
24085;DHT22;12268;52.110;5.548;2024-02-23T02:42:57;6.20;99.90
24085;DHT22;12268;52.110;5.548;2024-02-23T02:45:23;6.20;99.90
24085;DHT22;12268;52.110;5.548;2024-02-23T02:47:49;6.10;99.90
24085;DHT22;12268;52.110;5.548;2024-02-23T02:50:15;6.10;99.90
24085;DHT22;12268;52.110;5.548;2024-02-23T02:52:41;6.10;99.90
24085;DHT22;12268;52.110;5.548;2024-02-23T02:55:06;6.10;99.90
24085;DHT22;12268;52.110;5.548;2024-02-23T02:57:32;6.10;99.90
24085;DHT22;12268;52.110;5.548;2024-02-23T02:59:58;6.00;99.90
24085;DHT22;12268;52.110;5.548;2024-02-23T03:02:23;5.90;99.90
24085;DHT22;12268;52.110;5.548;2024-02-23T03:04:49;6.00;99.90
24085;DHT22;12268;52.110;5.548;2024-02-23T03:07:16;6.00;99.90
24085;DHT22;12268;52.110;5.548;2024-02-23T03:09:42;5.90;99.90
24085;DHT22;12268;52.110;5.548;2024-02-23T03:12:08;6.20;99.90
24085;DHT22;12268;52.110;5.548;2024-02-23T03:14:34;6.20;99.90
24085;DHT22;12268;52.110;5.548;2024-02-23T03:16:59;6.20;99.90
24085;DHT22;12268;52.110;5.548;2024-02-23T03:19:25;6.10;99.90
24085;DHT22;12268;52.110;5.548;2024-02-23T03:21:51;6.00;99.90
24085;DHT22;12268;52.110;5.548;2024-02-23T03:24:17;6.00;99.90
24085;DHT22;12268;52.110;5.548;2024-02-23T03:26:43;6.10;99.90
24085;DHT22;12268;52.110;5.548;2024-02-23T03:29:09;6.20;99.90
24085;DHT22;12268;52.110;5.548;2024-02-23T03:31:35;6.10;99.90
24085;DHT22;12268;52.110;5.548;2024-02-23T03:34:01;6.10;99.90
24085;DHT22;12268;52.110;5.548;2024-02-23T03:36:27;6.10;99.90
24085;DHT22;12268;52.110;5.548;2024-02-23T03:38:52;5.90;99.90
24085;DHT22;12268;52.110;5.548;2024-02-23T03:41:18;5.90;99.90
24085;DHT22;12268;52.110;5.548;2024-02-23T03:43:43;5.90;99.90
24085;DHT22;12268;52.110;5.548;2024-02-23T03:46:09;5.90;99.90
24085;DHT22;12268;52.110;5.548;2024-02-23T03:48:35;5.80;99.90
24085;DHT22;12268;52.110;5.548;2024-02-23T03:51:03;5.90;99.90
24085;DHT22;12268;52.110;5.548;2024-02-23T03:53:29;5.90;99.90
24085;DHT22;12268;52.110;5.548;2024-02-23T03:55:55;5.80;99.90
24085;DHT22;12268;52.110;5.548;2024-02-23T03:58:21;6.00;99.90
24085;DHT22;12268;52.110;5.548;2024-02-23T04:00:47;6.00;99.90
24085;DHT22;12268;52.110;5.548;2024-02-23T04:03:13;6.10;99.90
24085;DHT22;12268;52.110;5.548;2024-02-23T04:05:38;6.00;99.90
24085;DHT22;12268;52.110;5.548;2024-02-23T04:08:04;6.00;99.90
24085;DHT22;12268;52.110;5.548;2024-02-23T04:10:30;5.80;99.90
24085;DHT22;12268;52.110;5.548;2024-02-23T04:12:55;5.80;99.90
24085;DHT22;12268;52.110;5.548;2024-02-23T04:15:21;5.80;99.90
24085;DHT22;12268;52.110;5.548;2024-02-23T04:17:46;6.00;99.90
24085;DHT22;12268;52.110;5.548;2024-02-23T04:20:12;5.90;99.90
24085;DHT22;12268;52.110;5.548;2024-02-23T04:22:39;5.80;99.90
24085;DHT22;12268;52.110;5.548;2024-02-23T04:25:04;6.10;99.90
24085;DHT22;12268;52.110;5.548;2024-02-23T04:27:30;6.10;99.90
24085;DHT22;12268;52.110;5.548;2024-02-23T04:29:56;5.90;99.90
24085;DHT22;12268;52.110;5.548;2024-02-23T04:32:22;6.10;99.90
24085;DHT22;12268;52.110;5.548;2024-02-23T04:34:47;6.10;99.90
24085;DHT22;12268;52.110;5.548;2024-02-23T04:37:13;6.00;99.90
24085;DHT22;12268;52.110;5.548;2024-02-23T04:39:38;6.00;99.90
24085;DHT22;12268;52.110;5.548;2024-02-23T04:42:07;6.00;99.90
24085;DHT22;12268;52.110;5.548;2024-02-23T04:44:34;5.90;99.90
24085;DHT22;12268;52.110;5.548;2024-02-23T04:47:00;5.90;99.90
24085;DHT22;12268;52.110;5.548;2024-02-23T04:49:25;6.00;99.90
24085;DHT22;12268;52.110;5.548;2024-02-23T04:51:51;6.00;99.90
24085;DHT22;12268;52.110;5.548;2024-02-23T04:54:17;6.00;99.90
24085;DHT22;12268;52.110;5.548;2024-02-23T04:56:42;6.20;99.90
24085;DHT22;12268;52.110;5.548;2024-02-23T04:59:08;6.30;99.90
24085;DHT22;12268;52.110;5.548;2024-02-23T05:01:37;6.30;99.90
24085;DHT22;12268;52.110;5.548;2024-02-23T05:04:03;6.40;99.90
24085;DHT22;12268;52.110;5.548;2024-02-23T05:06:29;6.30;99.90
24085;DHT22;12268;52.110;5.548;2024-02-23T05:08:55;6.30;99.90
24085;DHT22;12268;52.110;5.548;2024-02-23T05:11:21;6.30;99.90
24085;DHT22;12268;52.110;5.548;2024-02-23T05:13:47;6.30;99.90
24085;DHT22;12268;52.110;5.548;2024-02-23T05:16:14;6.20;99.90
24085;DHT22;12268;52.110;5.548;2024-02-23T05:18:40;6.30;99.90
24085;DHT22;12268;52.110;5.548;2024-02-23T05:21:06;6.30;99.90
24085;DHT22;12268;52.110;5.548;2024-02-23T05:23:32;6.40;99.90
24085;DHT22;12268;52.110;5.548;2024-02-23T05:25:58;6.60;99.90
24085;DHT22;12268;52.110;5.548;2024-02-23T05:28:23;6.70;99.90
24085;DHT22;12268;52.110;5.548;2024-02-23T05:30:49;6.70;99.90
24085;DHT22;12268;52.110;5.548;2024-02-23T05:33:14;6.80;99.90
24085;DHT22;12268;52.110;5.548;2024-02-23T05:35:40;6.80;99.90
24085;DHT22;12268;52.110;5.548;2024-02-23T05:38:06;6.70;99.90
24085;DHT22;12268;52.110;5.548;2024-02-23T05:40:32;6.80;99.90
24085;DHT22;12268;52.110;5.548;2024-02-23T05:43:01;6.80;99.90
24085;DHT22;12268;52.110;5.548;2024-02-23T05:45:27;6.80;99.90
24085;DHT22;12268;52.110;5.548;2024-02-23T05:47:52;6.80;99.90
24085;DHT22;12268;52.110;5.548;2024-02-23T05:50:18;6.80;99.90
24085;DHT22;12268;52.110;5.548;2024-02-23T05:52:43;6.80;99.90
24085;DHT22;12268;52.110;5.548;2024-02-23T05:55:09;6.80;99.90
24085;DHT22;12268;52.110;5.548;2024-02-23T05:57:35;6.90;99.90
24085;DHT22;12268;52.110;5.548;2024-02-23T06:00:00;6.80;99.90
24085;DHT22;12268;52.110;5.548;2024-02-23T06:02:26;6.80;99.90
24085;DHT22;12268;52.110;5.548;2024-02-23T06:04:51;6.80;99.90
24085;DHT22;12268;52.110;5.548;2024-02-23T06:07:17;6.90;99.90
24085;DHT22;12268;52.110;5.548;2024-02-23T06:09:43;6.90;99.90
24085;DHT22;12268;52.110;5.548;2024-02-23T06:12:09;7.00;99.90
24085;DHT22;12268;52.110;5.548;2024-02-23T06:14:35;7.00;99.90
24085;DHT22;12268;52.110;5.548;2024-02-23T06:17:01;6.90;99.90
24085;DHT22;12268;52.110;5.548;2024-02-23T06:19:28;6.90;99.90
24085;DHT22;12268;52.110;5.548;2024-02-23T06:21:54;6.90;99.90
24085;DHT22;12268;52.110;5.548;2024-02-23T06:24:19;7.10;99.90
24085;DHT22;12268;52.110;5.548;2024-02-23T06:26:45;7.00;99.90
24085;DHT22;12268;52.110;5.548;2024-02-23T06:29:12;7.00;99.90
24085;DHT22;12268;52.110;5.548;2024-02-23T06:31:39;6.90;99.90
24085;DHT22;12268;52.110;5.548;2024-02-23T06:34:05;7.00;99.90
24085;DHT22;12268;52.110;5.548;2024-02-23T06:36:31;7.00;99.90
24085;DHT22;12268;52.110;5.548;2024-02-23T06:38:57;7.00;99.90
24085;DHT22;12268;52.110;5.548;2024-02-23T06:41:22;7.00;99.90
24085;DHT22;12268;52.110;5.548;2024-02-23T06:43:48;7.20;99.90
24085;DHT22;12268;52.110;5.548;2024-02-23T06:46:14;7.30;99.90
24085;DHT22;12268;52.110;5.548;2024-02-23T06:48:39;7.30;99.90
24085;DHT22;12268;52.110;5.548;2024-02-23T06:51:05;7.40;99.90
24085;DHT22;12268;52.110;5.548;2024-02-23T06:53:35;7.50;99.90
24085;DHT22;12268;52.110;5.548;2024-02-23T06:56:00;7.40;99.90
24085;DHT22;12268;52.110;5.548;2024-02-23T06:58:26;7.60;99.90
24085;DHT22;12268;52.110;5.548;2024-02-23T07:00:52;7.60;99.90
24085;DHT22;12268;52.110;5.548;2024-02-23T07:03:18;7.60;99.90
24085;DHT22;12268;52.110;5.548;2024-02-23T07:05:43;7.70;99.90
24085;DHT22;12268;52.110;5.548;2024-02-23T07:08:10;7.90;99.90
24085;DHT22;12268;52.110;5.548;2024-02-23T07:10:36;7.80;99.90
24085;DHT22;12268;52.110;5.548;2024-02-23T07:13:02;7.80;99.90
24085;DHT22;12268;52.110;5.548;2024-02-23T07:15:28;7.70;99.90
24085;DHT22;12268;52.110;5.548;2024-02-23T07:17:53;7.70;99.90
24085;DHT22;12268;52.110;5.548;2024-02-23T07:20:19;7.70;99.90
24085;DHT22;12268;52.110;5.548;2024-02-23T07:22:46;7.70;99.90
24085;DHT22;12268;52.110;5.548;2024-02-23T07:25:15;7.40;99.90
24085;DHT22;12268;52.110;5.548;2024-02-23T07:27:41;7.60;99.90
24085;DHT22;12268;52.110;5.548;2024-02-23T07:30:07;7.60;99.90
24085;DHT22;12268;52.110;5.548;2024-02-23T07:32:33;7.70;99.90
24085;DHT22;12268;52.110;5.548;2024-02-23T07:34:59;7.80;99.90
24085;DHT22;12268;52.110;5.548;2024-02-23T07:37:26;7.80;99.90
24085;DHT22;12268;52.110;5.548;2024-02-23T07:39:52;7.70;99.90
24085;DHT22;12268;52.110;5.548;2024-02-23T07:42:18;7.80;99.90
24085;DHT22;12268;52.110;5.548;2024-02-23T07:44:44;7.70;99.90
24085;DHT22;12268;52.110;5.548;2024-02-23T07:47:11;7.70;99.90
24085;DHT22;12268;52.110;5.548;2024-02-23T07:49:36;7.70;99.90
24085;DHT22;12268;52.110;5.548;2024-02-23T07:52:03;7.80;99.90
24085;DHT22;12268;52.110;5.548;2024-02-23T07:54:28;7.80;99.90
24085;DHT22;12268;52.110;5.548;2024-02-23T07:56:54;8.00;99.90
24085;DHT22;12268;52.110;5.548;2024-02-23T07:59:20;8.10;99.90
24085;DHT22;12268;52.110;5.548;2024-02-23T08:01:45;8.10;99.90
24085;DHT22;12268;52.110;5.548;2024-02-23T08:04:12;8.30;99.90
24085;DHT22;12268;52.110;5.548;2024-02-23T08:06:39;8.30;99.90
24085;DHT22;12268;52.110;5.548;2024-02-23T08:09:04;8.40;99.90
24085;DHT22;12268;52.110;5.548;2024-02-23T08:11:30;8.50;99.90
24085;DHT22;12268;52.110;5.548;2024-02-23T08:13:56;8.60;99.90
24085;DHT22;12268;52.110;5.548;2024-02-23T08:16:21;8.30;99.90
24085;DHT22;12268;52.110;5.548;2024-02-23T08:18:47;8.10;99.90
24085;DHT22;12268;52.110;5.548;2024-02-23T08:21:13;8.10;99.90
24085;DHT22;12268;52.110;5.548;2024-02-23T08:23:38;8.00;99.90
24085;DHT22;12268;52.110;5.548;2024-02-23T08:26:04;8.20;99.90
24085;DHT22;12268;52.110;5.548;2024-02-23T08:28:29;8.10;99.90
24085;DHT22;12268;52.110;5.548;2024-02-23T08:30:55;8.10;99.90
24085;DHT22;12268;52.110;5.548;2024-02-23T08:33:21;8.30;99.90
24085;DHT22;12268;52.110;5.548;2024-02-23T08:35:46;8.10;99.90
24085;DHT22;12268;52.110;5.548;2024-02-23T08:38:14;8.30;99.90
24085;DHT22;12268;52.110;5.548;2024-02-23T08:40:39;8.50;99.90
24085;DHT22;12268;52.110;5.548;2024-02-23T08:43:05;8.60;99.90
24085;DHT22;12268;52.110;5.548;2024-02-23T08:45:31;8.60;99.90
24085;DHT22;12268;52.110;5.548;2024-02-23T08:47:56;8.60;99.90
24085;DHT22;12268;52.110;5.548;2024-02-23T08:50:22;8.50;99.90
24085;DHT22;12268;52.110;5.548;2024-02-23T08:52:48;8.50;99.90
24085;DHT22;12268;52.110;5.548;2024-02-23T08:55:13;8.30;99.90
24085;DHT22;12268;52.110;5.548;2024-02-23T08:57:39;8.30;99.90
24085;DHT22;12268;52.110;5.548;2024-02-23T09:00:05;8.40;99.90
24085;DHT22;12268;52.110;5.548;2024-02-23T09:02:31;8.30;99.90
24085;DHT22;12268;52.110;5.548;2024-02-23T09:04:58;8.20;99.90
24085;DHT22;12268;52.110;5.548;2024-02-23T09:07:23;8.20;99.90
24085;DHT22;12268;52.110;5.548;2024-02-23T09:09:49;8.20;99.90
24085;DHT22;12268;52.110;5.548;2024-02-23T09:12:15;8.10;99.90
24085;DHT22;12268;52.110;5.548;2024-02-23T09:14:42;8.30;99.90
24085;DHT22;12268;52.110;5.548;2024-02-23T09:17:09;8.20;99.90
24085;DHT22;12268;52.110;5.548;2024-02-23T09:19:35;8.20;99.90
24085;DHT22;12268;52.110;5.548;2024-02-23T09:22:02;8.40;99.90
24085;DHT22;12268;52.110;5.548;2024-02-23T09:24:28;8.30;99.90
24085;DHT22;12268;52.110;5.548;2024-02-23T09:26:53;8.30;99.90
24085;DHT22;12268;52.110;5.548;2024-02-23T09:29:19;8.20;99.90
24085;DHT22;12268;52.110;5.548;2024-02-23T09:31:45;7.90;99.90
24085;DHT22;12268;52.110;5.548;2024-02-23T09:34:10;7.80;99.90
24085;DHT22;12268;52.110;5.548;2024-02-23T09:36:36;7.70;99.90
24085;DHT22;12268;52.110;5.548;2024-02-23T09:39:02;7.80;99.90
24085;DHT22;12268;52.110;5.548;2024-02-23T09:41:30;7.90;99.90
24085;DHT22;12268;52.110;5.548;2024-02-23T09:43:58;8.00;99.90
24085;DHT22;12268;52.110;5.548;2024-02-23T09:46:25;8.20;99.90
24085;DHT22;12268;52.110;5.548;2024-02-23T09:48:52;8.20;99.90
24085;DHT22;12268;52.110;5.548;2024-02-23T09:51:19;8.10;99.90
24085;DHT22;12268;52.110;5.548;2024-02-23T09:53:47;8.00;99.90
24085;DHT22;12268;52.110;5.548;2024-02-23T09:56:15;8.00;99.90
24085;DHT22;12268;52.110;5.548;2024-02-23T09:58:43;7.90;99.90
24085;DHT22;12268;52.110;5.548;2024-02-23T10:01:10;7.90;99.90
24085;DHT22;12268;52.110;5.548;2024-02-23T10:03:37;7.80;99.90
24085;DHT22;12268;52.110;5.548;2024-02-23T10:06:04;7.70;99.90
24085;DHT22;12268;52.110;5.548;2024-02-23T10:08:30;7.50;99.90
24085;DHT22;12268;52.110;5.548;2024-02-23T10:10:56;7.40;99.90
24085;DHT22;12268;52.110;5.548;2024-02-23T10:13:23;7.60;99.90
24085;DHT22;12268;52.110;5.548;2024-02-23T10:15:52;7.70;99.90
24085;DHT22;12268;52.110;5.548;2024-02-23T10:18:19;7.90;99.90
24085;DHT22;12268;52.110;5.548;2024-02-23T10:20:47;8.00;99.90
24085;DHT22;12268;52.110;5.548;2024-02-23T10:23:13;8.10;99.90
24085;DHT22;12268;52.110;5.548;2024-02-23T10:25:39;8.30;99.90
24085;DHT22;12268;52.110;5.548;2024-02-23T10:28:05;8.50;99.90
24085;DHT22;12268;52.110;5.548;2024-02-23T10:30:31;8.40;99.90
24085;DHT22;12268;52.110;5.548;2024-02-23T10:32:58;8.50;99.90
24085;DHT22;12268;52.110;5.548;2024-02-23T10:35:25;8.70;99.90
24085;DHT22;12268;52.110;5.548;2024-02-23T10:37:52;8.90;99.90
24085;DHT22;12268;52.110;5.548;2024-02-23T10:40:19;8.90;99.90
24085;DHT22;12268;52.110;5.548;2024-02-23T10:42:47;9.00;99.90
24085;DHT22;12268;52.110;5.548;2024-02-23T10:45:20;9.00;99.90
24085;DHT22;12268;52.110;5.548;2024-02-23T10:47:48;8.90;99.90
24085;DHT22;12268;52.110;5.548;2024-02-23T10:50:14;8.40;99.90
24085;DHT22;12268;52.110;5.548;2024-02-23T10:52:43;8.20;99.90
24085;DHT22;12268;52.110;5.548;2024-02-23T10:55:10;8.00;99.90
24085;DHT22;12268;52.110;5.548;2024-02-23T10:57:36;7.90;99.90
24085;DHT22;12268;52.110;5.548;2024-02-23T11:00:03;7.90;99.90
24085;DHT22;12268;52.110;5.548;2024-02-23T11:02:32;8.10;99.90
24085;DHT22;12268;52.110;5.548;2024-02-23T11:05:00;8.00;99.90
24085;DHT22;12268;52.110;5.548;2024-02-23T11:07:25;8.00;99.90
24085;DHT22;12268;52.110;5.548;2024-02-23T11:09:53;8.20;99.90
24085;DHT22;12268;52.110;5.548;2024-02-23T11:12:23;8.40;99.90
24085;DHT22;12268;52.110;5.548;2024-02-23T11:14:50;8.40;99.90
24085;DHT22;12268;52.110;5.548;2024-02-23T11:17:19;8.50;99.90
24085;DHT22;12268;52.110;5.548;2024-02-23T11:19:51;8.70;99.90
24085;DHT22;12268;52.110;5.548;2024-02-23T11:22:27;9.20;99.90
24085;DHT22;12268;52.110;5.548;2024-02-23T11:24:59;9.30;99.90
24085;DHT22;12268;52.110;5.548;2024-02-23T11:27:24;9.30;99.90
24085;DHT22;12268;52.110;5.548;2024-02-23T11:30:06;9.60;99.90
24085;DHT22;12268;52.110;5.548;2024-02-23T11:32:47;9.70;99.90
24085;DHT22;12268;52.110;5.548;2024-02-23T11:35:17;9.60;99.90
24085;DHT22;12268;52.110;5.548;2024-02-23T11:40:13;9.70;99.90
24085;DHT22;12268;52.110;5.548;2024-02-23T11:42:42;9.70;99.90
24085;DHT22;12268;52.110;5.548;2024-02-23T11:45:11;9.90;99.90
24085;DHT22;12268;52.110;5.548;2024-02-23T11:47:37;10.00;99.90
24085;DHT22;12268;52.110;5.548;2024-02-23T11:50:07;10.30;99.90
24085;DHT22;12268;52.110;5.548;2024-02-23T11:52:33;10.40;99.90
24085;DHT22;12268;52.110;5.548;2024-02-23T11:54:59;10.30;99.90
24085;DHT22;12268;52.110;5.548;2024-02-23T11:57:24;10.40;99.90
24085;DHT22;12268;52.110;5.548;2024-02-23T11:59:51;10.40;99.90
24085;DHT22;12268;52.110;5.548;2024-02-23T12:02:17;10.10;99.90
24085;DHT22;12268;52.110;5.548;2024-02-23T12:04:44;10.00;99.90
24085;DHT22;12268;52.110;5.548;2024-02-23T12:07:10;9.90;99.90
24085;DHT22;12268;52.110;5.548;2024-02-23T12:09:37;9.70;99.90
24085;DHT22;12268;52.110;5.548;2024-02-23T12:12:03;9.90;99.90
24085;DHT22;12268;52.110;5.548;2024-02-23T12:14:29;10.00;99.90
24085;DHT22;12268;52.110;5.548;2024-02-23T12:16:57;10.00;99.90
24085;DHT22;12268;52.110;5.548;2024-02-23T12:19:23;10.30;99.90
24085;DHT22;12268;52.110;5.548;2024-02-23T12:21:48;10.00;99.90
24085;DHT22;12268;52.110;5.548;2024-02-23T12:24:14;9.80;99.90
24085;DHT22;12268;52.110;5.548;2024-02-23T12:26:39;9.80;99.90
24085;DHT22;12268;52.110;5.548;2024-02-23T12:29:05;9.90;99.90
24085;DHT22;12268;52.110;5.548;2024-02-23T12:31:32;9.90;99.90
24085;DHT22;12268;52.110;5.548;2024-02-23T12:33:58;10.00;99.90
24085;DHT22;12268;52.110;5.548;2024-02-23T12:36:23;10.00;99.90
24085;DHT22;12268;52.110;5.548;2024-02-23T12:38:49;10.10;99.90
24085;DHT22;12268;52.110;5.548;2024-02-23T12:41:15;10.20;99.90
24085;DHT22;12268;52.110;5.548;2024-02-23T12:43:40;10.20;99.90
24085;DHT22;12268;52.110;5.548;2024-02-23T12:46:06;10.10;99.90
24085;DHT22;12268;52.110;5.548;2024-02-23T12:48:34;10.20;99.90
24085;DHT22;12268;52.110;5.548;2024-02-23T12:51:00;10.40;99.90
24085;DHT22;12268;52.110;5.548;2024-02-23T12:53:35;10.40;99.90
24085;DHT22;12268;52.110;5.548;2024-02-23T12:56:05;10.50;99.90
24085;DHT22;12268;52.110;5.548;2024-02-23T12:58:36;10.60;99.90
24085;DHT22;12268;52.110;5.548;2024-02-23T13:01:02;10.60;99.90
24085;DHT22;12268;52.110;5.548;2024-02-23T13:03:28;10.50;99.90
24085;DHT22;12268;52.110;5.548;2024-02-23T13:05:55;10.50;99.90
24085;DHT22;12268;52.110;5.548;2024-02-23T13:08:21;10.40;99.90
24085;DHT22;12268;52.110;5.548;2024-02-23T13:10:48;10.30;99.90
24085;DHT22;12268;52.110;5.548;2024-02-23T13:13:14;10.30;99.90
24085;DHT22;12268;52.110;5.548;2024-02-23T13:15:41;10.40;99.90
24085;DHT22;12268;52.110;5.548;2024-02-23T13:18:06;10.30;99.90
24085;DHT22;12268;52.110;5.548;2024-02-23T13:20:32;10.40;99.90
24085;DHT22;12268;52.110;5.548;2024-02-23T13:22:58;10.50;99.90
24085;DHT22;12268;52.110;5.548;2024-02-23T13:25:23;10.40;99.90
24085;DHT22;12268;52.110;5.548;2024-02-23T13:27:49;10.40;99.90
24085;DHT22;12268;52.110;5.548;2024-02-23T13:30:15;10.70;99.90
24085;DHT22;12268;52.110;5.548;2024-02-23T13:32:41;10.70;99.90
24085;DHT22;12268;52.110;5.548;2024-02-23T13:35:06;10.60;99.90
24085;DHT22;12268;52.110;5.548;2024-02-23T13:37:34;10.70;99.90
24085;DHT22;12268;52.110;5.548;2024-02-23T13:40:00;10.70;99.90
24085;DHT22;12268;52.110;5.548;2024-02-23T13:42:25;10.60;99.90
24085;DHT22;12268;52.110;5.548;2024-02-23T13:44:51;10.60;99.90
24085;DHT22;12268;52.110;5.548;2024-02-23T13:47:16;10.70;99.90
24085;DHT22;12268;52.110;5.548;2024-02-23T13:49:42;10.80;99.90
24085;DHT22;12268;52.110;5.548;2024-02-23T13:52:08;10.60;99.90
24085;DHT22;12268;52.110;5.548;2024-02-23T13:54:34;10.70;99.90
24085;DHT22;12268;52.110;5.548;2024-02-23T13:56:59;10.90;99.90
24085;DHT22;12268;52.110;5.548;2024-02-23T13:59:25;10.70;99.90
24085;DHT22;12268;52.110;5.548;2024-02-23T14:01:51;10.70;99.90
24085;DHT22;12268;52.110;5.548;2024-02-23T14:04:17;10.80;99.90
24085;DHT22;12268;52.110;5.548;2024-02-23T14:06:42;10.60;99.90
24085;DHT22;12268;52.110;5.548;2024-02-23T14:09:09;10.70;99.90
24085;DHT22;12268;52.110;5.548;2024-02-23T14:11:35;10.80;99.90
24085;DHT22;12268;52.110;5.548;2024-02-23T14:14:00;10.80;99.90
24085;DHT22;12268;52.110;5.548;2024-02-23T14:16:28;10.70;99.90
24085;DHT22;12268;52.110;5.548;2024-02-23T14:18:54;10.80;99.90
24085;DHT22;12268;52.110;5.548;2024-02-23T14:21:19;10.80;99.90
24085;DHT22;12268;52.110;5.548;2024-02-23T14:23:47;11.00;99.90
24085;DHT22;12268;52.110;5.548;2024-02-23T14:26:12;11.00;99.90
24085;DHT22;12268;52.110;5.548;2024-02-23T14:28:38;11.30;99.90
24085;DHT22;12268;52.110;5.548;2024-02-23T14:31:04;11.40;99.90
24085;DHT22;12268;52.110;5.548;2024-02-23T14:33:31;11.70;99.90
24085;DHT22;12268;52.110;5.548;2024-02-23T14:35:56;11.70;99.90
24085;DHT22;12268;52.110;5.548;2024-02-23T14:38:22;11.70;99.90
24085;DHT22;12268;52.110;5.548;2024-02-23T14:40:48;11.70;99.90
24085;DHT22;12268;52.110;5.548;2024-02-23T14:43:13;11.60;99.90
24085;DHT22;12268;52.110;5.548;2024-02-23T14:45:39;11.20;99.90
24085;DHT22;12268;52.110;5.548;2024-02-23T14:48:05;11.10;99.90
24085;DHT22;12268;52.110;5.548;2024-02-23T14:50:30;11.50;99.90
24085;DHT22;12268;52.110;5.548;2024-02-23T14:52:56;11.50;99.90
24085;DHT22;12268;52.110;5.548;2024-02-23T14:55:22;11.50;99.90
24085;DHT22;12268;52.110;5.548;2024-02-23T14:57:47;11.50;99.90
24085;DHT22;12268;52.110;5.548;2024-02-23T15:00:13;11.60;99.90
24085;DHT22;12268;52.110;5.548;2024-02-23T15:02:39;11.70;99.90
24085;DHT22;12268;52.110;5.548;2024-02-23T15:05:05;11.70;99.90
24085;DHT22;12268;52.110;5.548;2024-02-23T15:07:32;11.60;99.90
24085;DHT22;12268;52.110;5.548;2024-02-23T15:09:58;11.70;99.90
24085;DHT22;12268;52.110;5.548;2024-02-23T15:12:25;11.70;99.90
24085;DHT22;12268;52.110;5.548;2024-02-23T15:14:53;11.60;99.90
24085;DHT22;12268;52.110;5.548;2024-02-23T15:17:19;11.60;99.90
24085;DHT22;12268;52.110;5.548;2024-02-23T15:19:45;11.60;99.90
24085;DHT22;12268;52.110;5.548;2024-02-23T15:22:10;11.40;99.90
24085;DHT22;12268;52.110;5.548;2024-02-23T15:24:39;11.40;99.90
24085;DHT22;12268;52.110;5.548;2024-02-23T15:27:07;11.30;99.90
24085;DHT22;12268;52.110;5.548;2024-02-23T15:29:34;11.40;99.90
24085;DHT22;12268;52.110;5.548;2024-02-23T15:32:00;11.40;99.90
24085;DHT22;12268;52.110;5.548;2024-02-23T15:34:26;11.20;99.90
24085;DHT22;12268;52.110;5.548;2024-02-23T15:36:52;11.20;99.90
24085;DHT22;12268;52.110;5.548;2024-02-23T15:39:17;11.30;99.90